createdAt,value
2018-05-17T00:02:06.444Z,13.26
2018-05-17T00:04:34.049Z,13.28
2018-05-17T00:07:01.713Z,13.28
2018-05-17T00:09:29.317Z,13.29
2018-05-17T00:11:56.947Z,13.14
2018-05-17T00:14:24.569Z,13.17
2018-05-17T00:16:52.233Z,13.19
2018-05-17T00:19:19.865Z,13.25
2018-05-17T00:21:47.495Z,13.24
2018-05-17T00:24:15.123Z,13.38
2018-05-17T00:26:42.714Z,13.14
2018-05-17T00:29:10.364Z,13.14
2018-05-17T00:31:37.959Z,13.14
2018-05-17T00:34:05.590Z,13.17
2018-05-17T00:36:33.198Z,13.11
2018-05-17T00:39:00.833Z,13.23
2018-05-17T00:41:28.441Z,13.26
2018-05-17T00:43:56.069Z,13.18
2018-05-17T00:46:23.758Z,13.14
2018-05-17T00:48:51.406Z,13.04
2018-05-17T00:51:19.010Z,13.08
2018-05-17T00:53:46.640Z,13.01
2018-05-17T00:56:14.240Z,12.89
2018-05-17T00:58:41.987Z,12.95
2018-05-17T01:01:09.585Z,12.97
2018-05-17T01:03:37.222Z,12.90
2018-05-17T01:06:04.859Z,12.79
2018-05-17T01:08:32.449Z,12.85
2018-05-17T01:11:00.085Z,12.80
2018-05-17T01:13:27.712Z,12.79
2018-05-17T01:15:55.344Z,12.63
2018-05-17T01:18:22.964Z,12.58
2018-05-17T01:20:50.596Z,12.65
2018-05-17T01:23:18.220Z,12.57
2018-05-17T01:25:45.903Z,12.56
2018-05-17T01:28:13.503Z,12.50
2018-05-17T01:30:41.145Z,12.60
2018-05-17T01:33:08.821Z,12.52
2018-05-17T01:35:36.473Z,12.43
2018-05-17T01:38:15.576Z,12.40
2018-05-17T01:40:43.207Z,12.31
2018-05-17T01:43:10.803Z,12.24
2018-05-17T01:45:38.566Z,12.27
2018-05-17T01:48:06.180Z,12.29
2018-05-17T01:50:33.797Z,12.30
2018-05-17T01:53:01.452Z,12.22
2018-05-17T01:55:29.129Z,12.06
2018-05-17T01:57:56.777Z,12.01
2018-05-17T02:00:24.373Z,11.85
2018-05-17T02:02:52.009Z,11.95
2018-05-17T02:05:19.763Z,11.81
2018-05-17T02:07:47.408Z,11.87
2018-05-17T02:10:15.098Z,11.77
2018-05-17T02:12:42.752Z,11.70
2018-05-17T02:15:10.352Z,11.65
2018-05-17T02:17:38.113Z,11.66
2018-05-17T02:20:05.717Z,11.67
2018-05-17T02:22:33.357Z,11.52
2018-05-17T02:25:00.967Z,11.54
2018-05-17T02:27:28.573Z,11.64
2018-05-17T02:29:56.228Z,11.52
2018-05-17T02:32:23.827Z,11.50
2018-05-17T02:34:51.498Z,11.52
2018-05-17T02:37:19.081Z,11.49
2018-05-17T02:39:46.725Z,11.45
2018-05-17T02:42:14.343Z,11.53
2018-05-17T02:44:42.033Z,11.33
2018-05-17T02:47:09.629Z,11.29
2018-05-17T02:49:37.277Z,11.34
2018-05-17T02:52:04.930Z,11.44
2018-05-17T02:54:32.592Z,11.37
2018-05-17T02:57:00.325Z,11.41
2018-05-17T02:59:27.893Z,11.32
2018-05-17T03:01:55.509Z,11.30
2018-05-17T03:04:23.145Z,11.46
2018-05-17T03:06:50.735Z,11.39
2018-05-17T03:09:18.433Z,11.39
2018-05-17T03:11:46.073Z,11.43
2018-05-17T03:14:13.719Z,11.30
2018-05-17T03:16:41.353Z,11.12
2018-05-17T03:19:08.988Z,11.15
2018-05-17T03:21:36.741Z,11.14
2018-05-17T03:24:04.342Z,11.19
2018-05-17T03:26:31.985Z,11.37
2018-05-17T03:28:59.666Z,11.35
2018-05-17T03:31:27.352Z,11.31
2018-05-17T03:33:54.974Z,11.17
2018-05-17T03:36:22.635Z,11.25
2018-05-17T03:38:50.298Z,11.20
2018-05-17T03:41:17.989Z,11.19
2018-05-17T03:43:45.597Z,11.19
2018-05-17T03:46:13.242Z,11.21
2018-05-17T03:48:40.833Z,11.06
2018-05-17T03:51:08.482Z,11.07
2018-05-17T03:53:36.204Z,11.02
2018-05-17T03:56:03.870Z,11.10
2018-05-17T03:58:31.484Z,11.06
2018-05-17T04:01:10.777Z,11.07
2018-05-17T04:03:50.032Z,11.17
2018-05-17T04:06:29.348Z,11.15
2018-05-17T04:08:56.988Z,11.12
2018-05-17T04:11:24.629Z,11.10
2018-05-17T04:13:52.320Z,11.11
2018-05-17T04:16:19.848Z,11.10
2018-05-17T04:18:47.499Z,11.02
2018-05-17T04:21:15.116Z,10.89
2018-05-17T04:23:42.756Z,10.96
2018-05-17T04:26:10.373Z,11.05
2018-05-17T04:28:38.085Z,11.03
2018-05-17T04:31:05.688Z,11.01
2018-05-17T04:33:33.504Z,11.04
2018-05-17T04:36:01.101Z,10.98
2018-05-17T04:38:28.789Z,10.98
2018-05-17T04:40:56.506Z,10.97
2018-05-17T04:43:24.158Z,11.05
2018-05-17T04:45:51.885Z,11.02
2018-05-17T04:48:19.517Z,11.14
2018-05-17T04:50:47.180Z,11.20
2018-05-17T04:53:14.826Z,11.21
2018-05-17T04:55:42.429Z,11.16
2018-05-17T04:58:10.068Z,10.93
2018-05-17T05:00:37.729Z,10.87
2018-05-17T05:03:05.331Z,11.04
2018-05-17T05:05:33.032Z,10.97
2018-05-17T05:08:00.664Z,10.76
2018-05-17T05:10:28.322Z,10.73
2018-05-17T05:12:55.928Z,10.75
2018-05-17T05:15:23.616Z,10.78
2018-05-17T05:17:51.220Z,10.82
2018-05-17T05:20:18.862Z,10.87
2018-05-17T05:22:46.516Z,10.89
2018-05-17T05:25:14.235Z,10.95
2018-05-17T05:27:41.824Z,11.04
2018-05-17T05:30:09.450Z,11.06
2018-05-17T05:32:37.091Z,11.13
2018-05-17T05:35:04.700Z,11.19
2018-05-17T05:37:32.411Z,11.23
2018-05-17T05:39:59.989Z,11.34
2018-05-17T05:42:27.655Z,11.40
2018-05-17T05:44:55.294Z,11.46
2018-05-17T05:47:22.944Z,11.53
2018-05-17T05:49:50.536Z,11.47
2018-05-17T05:52:18.172Z,11.61
2018-05-17T05:54:45.805Z,11.60
2018-05-17T05:57:13.449Z,11.68
2018-05-17T05:59:41.059Z,11.66
2018-05-17T06:02:08.653Z,11.55
2018-05-17T06:04:36.314Z,11.53
2018-05-17T06:07:03.936Z,11.55
2018-05-17T06:09:31.699Z,11.52
2018-05-17T06:11:59.308Z,11.72
2018-05-17T06:14:27.029Z,11.66
2018-05-17T06:16:54.637Z,11.63
2018-05-17T06:19:22.288Z,11.68
2018-05-17T06:21:50.017Z,11.64
2018-05-17T06:24:17.675Z,11.71
2018-05-17T06:26:45.288Z,11.81
2018-05-17T06:29:12.936Z,11.72
2018-05-17T06:31:40.552Z,11.70
2018-05-17T06:34:08.210Z,11.84
2018-05-17T06:36:35.820Z,11.88
2018-05-17T06:39:03.446Z,11.91
2018-05-17T06:41:31.054Z,11.86
2018-05-17T06:43:58.740Z,11.91
2018-05-17T06:46:26.305Z,11.96
2018-05-17T06:48:54.096Z,12.18
2018-05-17T06:51:21.701Z,12.38
2018-05-17T06:53:49.307Z,12.49
2018-05-17T06:56:16.966Z,12.39
2018-05-17T06:58:44.588Z,12.50
2018-05-17T07:01:12.396Z,12.77
2018-05-17T07:03:39.911Z,12.82
2018-05-17T07:06:07.556Z,12.68
2018-05-17T07:08:35.219Z,12.74
2018-05-17T07:11:02.908Z,12.69
2018-05-17T07:13:30.531Z,12.63
2018-05-17T07:15:58.169Z,12.26
2018-05-17T07:18:25.875Z,12.24
2018-05-17T07:20:53.449Z,12.15
2018-05-17T07:23:21.062Z,12.33
2018-05-17T07:25:48.697Z,12.28
2018-05-17T07:28:16.313Z,12.36
2018-05-17T07:30:43.977Z,12.55
2018-05-17T07:33:11.604Z,12.71
2018-05-17T07:35:39.312Z,12.67
2018-05-17T07:38:06.917Z,12.51
2018-05-17T07:40:34.527Z,12.35
2018-05-17T07:43:02.161Z,12.20
2018-05-17T07:45:29.909Z,12.26
2018-05-17T07:47:57.573Z,12.32
2018-05-17T07:50:25.279Z,12.38
2018-05-17T07:52:53.056Z,12.58
2018-05-17T07:55:20.738Z,12.57
2018-05-17T07:57:48.449Z,12.74
2018-05-17T08:00:16.066Z,12.69
2018-05-17T08:02:43.792Z,12.62
2018-05-17T08:05:11.393Z,12.79
2018-05-17T08:07:39.065Z,12.93
2018-05-17T08:10:06.689Z,13.15
2018-05-17T08:12:34.341Z,13.34
2018-05-17T08:15:01.968Z,13.42
2018-05-17T08:17:29.661Z,13.44
2018-05-17T08:19:57.260Z,13.37
2018-05-17T08:22:24.860Z,13.26
2018-05-17T08:24:52.575Z,13.28
2018-05-17T08:27:20.174Z,13.27
2018-05-17T08:29:47.833Z,13.03
2018-05-17T08:32:15.433Z,13.04
2018-05-17T08:34:43.075Z,13.26
2018-05-17T08:37:10.765Z,13.50
2018-05-17T08:39:38.348Z,13.70
2018-05-17T08:42:05.990Z,13.85
2018-05-17T08:44:33.909Z,13.90
2018-05-17T08:47:01.521Z,13.94
2018-05-17T08:49:29.124Z,13.77
2018-05-17T08:51:57.465Z,13.70
2018-05-17T08:54:25.100Z,13.69
2018-05-17T08:56:52.730Z,13.66
2018-05-17T08:59:20.340Z,13.60
2018-05-17T09:01:48.051Z,13.55
2018-05-17T09:04:15.653Z,13.47
2018-05-17T09:06:43.296Z,13.48
2018-05-17T09:09:10.897Z,13.75
2018-05-17T09:11:38.537Z,14.01
2018-05-17T09:14:06.298Z,14.06
2018-05-17T09:16:33.963Z,13.81
2018-05-17T09:19:01.567Z,13.88
2018-05-17T09:21:29.180Z,14.13
2018-05-17T09:23:56.822Z,14.10
2018-05-17T09:26:24.460Z,14.44
2018-05-17T09:28:52.093Z,14.59
2018-05-17T09:31:19.718Z,14.56
2018-05-17T09:33:47.352Z,14.34
2018-05-17T09:36:14.953Z,14.57
2018-05-17T09:38:42.593Z,14.39
2018-05-17T09:41:10.432Z,14.56
2018-05-17T09:43:38.122Z,14.79
2018-05-17T09:46:05.730Z,14.78
2018-05-17T09:48:33.459Z,14.69
2018-05-17T09:51:01.082Z,14.73
2018-05-17T09:53:28.736Z,14.87
2018-05-17T09:55:56.369Z,14.70
2018-05-17T09:58:24.133Z,14.85
2018-05-17T10:00:51.761Z,15.40
2018-05-17T10:03:19.430Z,15.97
2018-05-17T10:05:47.048Z,15.30
2018-05-17T10:08:14.732Z,15.05
2018-05-17T10:10:42.468Z,14.86
2018-05-17T10:13:10.070Z,15.09
2018-05-17T10:15:37.937Z,15.36
2018-05-17T10:18:05.522Z,15.28
2018-05-17T10:20:33.186Z,15.24
2018-05-17T10:23:00.849Z,15.20
2018-05-17T10:25:28.480Z,15.40
2018-05-17T10:27:56.160Z,15.38
2018-05-17T10:30:23.811Z,15.37
2018-05-17T10:32:51.446Z,15.28
2018-05-17T10:35:19.118Z,15.41
2018-05-17T10:37:46.725Z,15.77
2018-05-17T10:40:15.319Z,15.81
2018-05-17T10:42:42.933Z,15.82
2018-05-17T10:45:10.569Z,15.79
2018-05-17T10:47:38.192Z,15.81
2018-05-17T10:50:05.953Z,15.86
2018-05-17T10:52:33.648Z,16.19
2018-05-17T10:55:01.297Z,16.12
2018-05-17T10:57:28.889Z,16.13
2018-05-17T10:59:56.617Z,16.43
2018-05-17T11:02:24.247Z,16.33
2018-05-17T11:04:51.836Z,16.48
2018-05-17T11:07:19.560Z,16.43
2018-05-17T11:09:47.171Z,16.54
2018-05-17T11:12:14.839Z,16.77
2018-05-17T11:14:42.430Z,17.10
2018-05-17T11:17:10.061Z,17.26
2018-05-17T11:19:37.665Z,17.35
2018-05-17T11:22:05.365Z,17.60
2018-05-17T11:24:32.965Z,17.01
2018-05-17T11:27:00.609Z,16.97
2018-05-17T11:29:28.240Z,17.05
2018-05-17T11:31:55.928Z,17.25
2018-05-17T11:34:23.556Z,17.68
2018-05-17T11:36:51.225Z,17.69
2018-05-17T11:39:18.821Z,17.97
2018-05-17T11:41:46.436Z,18.02
2018-05-17T11:44:14.329Z,17.93
2018-05-17T11:46:41.840Z,18.19
2018-05-17T11:49:09.487Z,18.34
2018-05-17T11:51:37.080Z,18.46
2018-05-17T11:54:04.762Z,18.63
2018-05-17T11:56:32.510Z,18.46
2018-05-17T11:59:00.136Z,18.13
2018-05-17T12:01:27.802Z,18.34
2018-05-17T12:03:55.401Z,18.29
2018-05-17T12:06:23.025Z,18.37
2018-05-17T12:08:50.664Z,18.21
2018-05-17T12:11:18.273Z,18.38
2018-05-17T12:13:46.000Z,18.65
2018-05-17T12:16:13.623Z,18.55
2018-05-17T12:18:41.374Z,18.38
2018-05-17T12:21:08.994Z,18.88
2018-05-17T12:23:36.584Z,18.88
2018-05-17T12:26:04.246Z,19.10
2018-05-17T12:28:31.870Z,19.19
2018-05-17T12:30:59.525Z,19.53
2018-05-17T12:33:27.140Z,19.45
2018-05-17T12:35:54.869Z,19.11
2018-05-17T12:38:22.468Z,19.31
2018-05-17T12:40:50.276Z,19.41
2018-05-17T12:43:17.878Z,19.43
2018-05-17T12:45:45.520Z,19.77
2018-05-17T12:48:13.185Z,19.57
2018-05-17T12:50:40.837Z,19.70
2018-05-17T12:53:08.541Z,19.30
2018-05-17T12:55:36.197Z,19.65
2018-05-17T12:58:03.813Z,19.64
2018-05-17T13:00:31.405Z,19.48
2018-05-17T13:02:59.052Z,19.51
2018-05-17T13:05:26.652Z,19.47
2018-05-17T13:07:54.313Z,19.55
2018-05-17T13:10:21.956Z,19.71
2018-05-17T13:12:49.591Z,19.99
2018-05-17T13:15:17.192Z,20.46
2018-05-17T13:17:44.853Z,20.65
2018-05-17T13:20:12.538Z,21.02
2018-05-17T13:22:40.196Z,21.35
2018-05-17T13:25:07.923Z,21.28
2018-05-17T13:27:35.612Z,21.50
2018-05-17T13:30:03.212Z,21.24
2018-05-17T13:32:30.853Z,21.15
2018-05-17T13:34:59.412Z,21.44
2018-05-17T13:37:27.142Z,21.35
2018-05-17T13:39:54.678Z,20.90
2018-05-17T13:42:22.352Z,21.39
2018-05-17T13:44:50.246Z,21.42
2018-05-17T13:47:17.864Z,21.25
2018-05-17T13:49:45.524Z,21.43
2018-05-17T13:52:13.148Z,20.92
2018-05-17T13:54:40.797Z,21.06
2018-05-17T13:57:08.437Z,21.52
2018-05-17T13:59:36.068Z,21.35
2018-05-17T14:02:03.672Z,21.20
2018-05-17T14:04:31.392Z,21.63
2018-05-17T14:06:59.005Z,21.55
2018-05-17T14:09:27.418Z,21.53
2018-05-17T14:11:55.756Z,21.88
2018-05-17T14:14:23.429Z,21.44
2018-05-17T14:16:51.089Z,21.68
2018-05-17T14:19:18.769Z,22.11
2018-05-17T14:21:46.379Z,22.01
2018-05-17T14:24:14.158Z,22.05
2018-05-17T14:26:41.833Z,21.83
2018-05-17T14:29:09.435Z,21.81
2018-05-17T14:31:37.084Z,21.43
2018-05-17T14:34:04.702Z,21.56
2018-05-17T14:36:32.369Z,21.72
2018-05-17T14:38:59.982Z,22.43
2018-05-17T14:41:27.714Z,22.08
2018-05-17T14:43:55.325Z,22.45
2018-05-17T14:46:22.977Z,22.66
2018-05-17T14:48:50.746Z,22.62
2018-05-17T14:51:18.433Z,22.30
2018-05-17T14:53:46.035Z,22.85
2018-05-17T14:56:13.704Z,22.72
2018-05-17T14:58:41.307Z,22.79
2018-05-17T15:01:09.017Z,22.61
2018-05-17T15:03:36.594Z,22.77
2018-05-17T15:06:04.227Z,23.01
2018-05-17T15:08:31.893Z,22.61
2018-05-17T15:10:59.497Z,22.50
2018-05-17T15:13:27.247Z,22.61
2018-05-17T15:15:54.857Z,22.71
2018-05-17T15:18:22.513Z,22.48
2018-05-17T15:20:50.196Z,22.99
2018-05-17T15:23:17.881Z,23.33
2018-05-17T15:25:45.477Z,23.08
2018-05-17T15:28:13.117Z,22.81
2018-05-17T15:30:40.938Z,23.07
2018-05-17T15:33:08.573Z,22.87
2018-05-17T15:35:36.193Z,22.99
2018-05-17T15:38:03.808Z,22.55
2018-05-17T15:40:31.454Z,22.65
2018-05-17T15:42:59.336Z,22.70
2018-05-17T15:45:26.983Z,22.85
2018-05-17T15:47:54.598Z,22.86
2018-05-17T15:50:22.364Z,22.71
2018-05-17T15:52:49.975Z,22.76
2018-05-17T15:55:17.664Z,22.64
2018-05-17T15:57:45.256Z,22.36
2018-05-17T16:00:12.896Z,22.61
2018-05-17T16:02:40.630Z,23.03
2018-05-17T16:05:08.539Z,22.26
2018-05-17T16:07:36.224Z,22.61
2018-05-17T16:10:04.072Z,22.79
2018-05-17T16:12:31.769Z,22.73
2018-05-17T16:14:59.420Z,22.75
2018-05-17T16:17:27.044Z,22.57
2018-05-17T16:19:54.672Z,22.96
2018-05-17T16:22:22.299Z,22.95
2018-05-17T16:24:49.902Z,22.86
2018-05-17T16:27:17.552Z,23.06
2018-05-17T16:29:45.154Z,23.13
2018-05-17T16:32:12.856Z,22.71
2018-05-17T16:34:40.492Z,22.46
2018-05-17T16:37:08.228Z,22.57
2018-05-17T16:39:35.839Z,22.36
2018-05-17T16:42:03.566Z,22.36
2018-05-17T16:44:31.163Z,22.10
2018-05-17T16:46:58.984Z,21.95
2018-05-17T16:49:26.605Z,22.06
2018-05-17T16:51:54.197Z,22.13
2018-05-17T16:54:21.943Z,21.99
2018-05-17T16:56:49.527Z,22.24
2018-05-17T16:59:17.183Z,21.89
2018-05-17T17:01:44.876Z,21.84
2018-05-17T17:04:12.529Z,21.72
2018-05-17T17:06:40.137Z,21.51
2018-05-17T17:09:07.780Z,21.41
2018-05-17T17:11:35.372Z,21.57
2018-05-17T17:14:03.033Z,21.36
2018-05-17T17:16:30.683Z,21.27
2018-05-17T17:18:58.322Z,21.46
2018-05-17T17:21:25.961Z,21.38
2018-05-17T17:23:53.677Z,21.16
2018-05-17T17:26:21.219Z,21.02
2018-05-17T17:28:48.877Z,20.78
2018-05-17T17:31:16.487Z,20.68
2018-05-17T17:33:44.205Z,20.68
2018-05-17T17:36:11.807Z,20.69
2018-05-17T17:38:39.430Z,20.35
2018-05-17T17:41:07.088Z,20.57
2018-05-17T17:43:34.733Z,20.34
2018-05-17T17:46:03.243Z,20.25
2018-05-17T17:48:30.945Z,20.20
2018-05-17T17:50:58.611Z,20.00
2018-05-17T17:53:26.322Z,19.88
2018-05-17T17:55:53.925Z,19.72
2018-05-17T17:58:21.611Z,19.70
2018-05-17T18:00:49.299Z,19.69
2018-05-17T18:03:16.910Z,19.63
2018-05-17T18:05:45.054Z,19.43
2018-05-17T18:08:12.665Z,19.44
2018-05-17T18:10:40.321Z,19.25
2018-05-17T18:13:07.936Z,19.15
2018-05-17T18:15:35.600Z,19.03
2018-05-17T18:18:03.821Z,18.79
2018-05-17T18:20:31.584Z,18.48
2018-05-17T18:22:59.213Z,18.26
2018-05-17T18:25:26.816Z,18.41
2018-05-17T18:27:54.469Z,18.23
2018-05-17T18:30:22.239Z,18.24
2018-05-17T18:32:49.906Z,18.23
2018-05-17T18:35:17.510Z,18.05
2018-05-17T18:37:45.174Z,17.97
2018-05-17T18:40:12.785Z,17.70
2018-05-17T18:42:40.560Z,17.69
2018-05-17T18:45:08.166Z,17.59
2018-05-17T18:47:35.820Z,17.51
2018-05-17T18:50:03.454Z,17.35
2018-05-17T18:52:31.713Z,17.25
2018-05-17T18:54:59.325Z,17.25
2018-05-17T18:57:26.990Z,17.16
2018-05-17T18:59:54.598Z,17.03
2018-05-17T19:02:22.395Z,17.02
2018-05-17T19:04:49.992Z,17.08
2018-05-17T19:07:17.617Z,17.00
2018-05-17T19:09:45.257Z,16.92
2018-05-17T19:12:12.905Z,16.70
2018-05-17T19:14:40.540Z,16.58
2018-05-17T19:17:08.187Z,16.48
2018-05-17T19:19:35.916Z,16.46
2018-05-17T19:22:03.537Z,16.45
2018-05-17T19:24:31.175Z,16.40
2018-05-17T19:26:58.788Z,16.31
2018-05-17T19:29:26.524Z,16.27
2018-05-17T19:31:54.138Z,16.23
2018-05-17T19:34:21.981Z,16.30
2018-05-17T19:36:49.670Z,16.20
2018-05-17T19:39:17.607Z,16.08
2018-05-17T19:41:45.273Z,16.10
2018-05-17T19:44:12.952Z,15.95
2018-05-17T19:46:40.598Z,15.89
2018-05-17T19:49:08.217Z,16.00
2018-05-17T19:51:35.907Z,15.92
2018-05-17T19:54:03.534Z,15.90
2018-05-17T19:56:31.209Z,15.80
2018-05-17T19:58:58.829Z,15.67
2018-05-17T20:01:26.500Z,15.59
2018-05-17T20:03:54.131Z,15.55
2018-05-17T20:06:21.834Z,15.44
2018-05-17T20:08:49.444Z,15.38
2018-05-17T20:11:17.187Z,15.32
2018-05-17T20:13:44.733Z,15.28
2018-05-17T20:16:12.477Z,15.32
2018-05-17T20:18:40.181Z,15.24
2018-05-17T20:21:07.791Z,15.18
2018-05-17T20:23:35.417Z,15.18
2018-05-17T20:26:03.079Z,15.05
2018-05-17T20:28:30.720Z,14.90
2018-05-17T20:30:58.398Z,14.83
2018-05-17T20:33:26.016Z,14.76
2018-05-17T20:35:53.660Z,14.70
2018-05-17T20:38:21.296Z,14.68
2018-05-17T20:40:48.920Z,14.66
2018-05-17T20:43:16.559Z,14.68
2018-05-17T20:45:44.246Z,14.66
2018-05-17T20:48:11.894Z,14.52
2018-05-17T20:50:39.556Z,14.35
2018-05-17T20:53:07.202Z,14.35
2018-05-17T20:55:34.835Z,14.26
2018-05-17T20:58:02.486Z,14.17
2018-05-17T21:00:30.174Z,14.02
2018-05-17T21:02:57.826Z,13.98
2018-05-17T21:05:25.445Z,14.05
2018-05-17T21:07:53.134Z,13.91
2018-05-17T21:10:20.865Z,14.00
2018-05-17T21:12:48.543Z,14.06
2018-05-17T21:15:16.075Z,13.88
2018-05-17T21:17:43.729Z,13.91
2018-05-17T21:20:11.372Z,13.70
2018-05-17T21:22:39.008Z,13.79
2018-05-17T21:25:06.702Z,13.57
2018-05-17T21:27:34.313Z,13.55
2018-05-17T21:30:02.210Z,13.65
2018-05-17T21:32:29.806Z,13.51
2018-05-17T21:34:57.450Z,13.42
2018-05-17T21:37:25.091Z,13.40
2018-05-17T21:39:52.749Z,13.40
2018-05-17T21:42:20.360Z,13.30
2018-05-17T21:44:48.043Z,13.20
2018-05-17T21:47:15.613Z,13.16
2018-05-17T21:49:43.261Z,13.16
2018-05-17T21:52:10.896Z,13.13
2018-05-17T21:54:39.540Z,13.10
2018-05-17T21:57:07.168Z,13.10
2018-05-17T21:59:34.828Z,13.00
2018-05-17T22:02:02.450Z,12.96
2018-05-17T22:04:30.168Z,12.89
2018-05-17T22:06:57.794Z,12.91
2018-05-17T22:09:25.402Z,12.91
2018-05-17T22:11:53.097Z,12.86
2018-05-17T22:14:20.684Z,12.74
2018-05-17T22:16:48.333Z,12.75
2018-05-17T22:19:15.928Z,12.78
2018-05-17T22:21:43.569Z,12.76
2018-05-17T22:24:11.189Z,12.59
2018-05-17T22:26:38.844Z,12.74
2018-05-17T22:29:06.497Z,12.51
2018-05-17T22:31:34.180Z,12.58
2018-05-17T22:34:01.809Z,12.56
2018-05-17T22:36:29.479Z,12.54
2018-05-17T22:38:57.079Z,12.45
2018-05-17T22:41:24.819Z,12.43
2018-05-17T22:43:52.417Z,12.36
2018-05-17T22:46:20.084Z,12.32
2018-05-17T22:48:49.332Z,12.31
2018-05-17T22:51:16.982Z,12.35
2018-05-17T22:53:44.597Z,12.31
2018-05-17T23:09:38.588Z,12.15
2018-05-17T23:12:06.914Z,12.00
2018-05-17T23:14:34.525Z,11.88
2018-05-17T23:17:02.219Z,12.10
2018-05-17T23:19:29.838Z,12.03
2018-05-17T23:21:57.521Z,12.00
2018-05-17T23:24:25.228Z,11.91
2018-05-17T23:26:53.701Z,11.77
2018-05-17T23:29:21.440Z,11.83
2018-05-17T23:31:49.054Z,11.73
2018-05-17T23:34:16.689Z,11.75
2018-05-17T23:36:44.882Z,11.55
2018-05-17T23:39:12.526Z,11.58
2018-05-17T23:41:45.995Z,11.66
2018-05-17T23:44:13.637Z,11.75
2018-05-17T23:46:41.249Z,11.59
2018-05-17T23:49:08.929Z,11.65
2018-05-17T23:51:36.529Z,11.60
2018-05-17T23:54:04.203Z,11.69
2018-05-17T23:56:31.849Z,11.64
2018-05-17T23:58:59.511Z,11.64
